Time;durP1;ratioP1;P1;durP2;ratioP2;P2;SDS_P1;SDS_P2;PMS_P1;PMS_P2;Temp;Humidity;BMP_temperature;BMP_pressure;BME280_temperature;BME280_humidity;BME280_pressure;Samples;Min_cycle;Max_cycle;Signal;HPM_P1;HPM_P2
2022/04/02 00:02:08;;;;;;;;;;;;;;;;;;5056781;28;19916;-48
2022/04/02 00:04:33;;;;;;;;;;;;;;;;;;5056738;28;20364;-46
2022/04/02 00:06:59;;;;;;;;;;;;;;;;;;5056772;28;19916;-45
2022/04/02 00:09:24;;;;;;;;;;;;;;;;;;5056466;28;20017;-45
2022/04/02 00:11:49;;;;;;;;;;;;;;;;;;5056615;28;20012;-46
2022/04/02 00:14:14;;;;;;;;;;;;;;;;;;5056604;28;19909;-46
2022/04/02 00:16:40;;;;;;;;;;;;;;;;;;5056291;28;19916;-46
2022/04/02 00:19:05;;;;;;;;;;;;;;;;;;5056444;28;20000;-46
2022/04/02 00:21:30;;;;;;;;;;;;;;;;;;5056398;28;20396;-46
2022/04/02 00:23:55;;;;;;;;;;;;;;;;;;5056489;28;20360;-46
2022/04/02 00:26:21;;;;;;;;;;;;;;;;;;5056294;28;19932;-46
2022/04/02 00:28:46;;;;;;;;;;;;;;;;;;5056076;28;19966;-46
2022/04/02 00:31:12;;;;;;;;;;;;;;;;;;5056266;28;19908;-45
2022/04/02 00:33:37;;;;;;;;;;;;;;;;;;5056024;28;19908;-46
2022/04/02 00:36:02;;;;;;;;;;;;;;;;;;5054792;28;19916;-45
2022/04/02 00:38:27;;;;;;;;;;;;;;;;;;5055953;28;19905;-47
2022/04/02 00:40:52;;;;;;;;;;;;;;;;;;5055981;28;19909;-45
2022/04/02 00:43:18;;;;;;;;;;;;;;;;;;5056015;28;19909;-45
2022/04/02 00:45:43;;;;;;;;;;;;;;;;;;5055036;28;19913;-45
2022/04/02 00:48:08;;;;;;;;;;;;;;;;;;5055643;28;19913;-45
2022/04/02 00:50:34;;;;;;;;;;;;;;;;;;5055670;28;19912;-46
2022/04/02 00:52:59;;;;;;;;;;;;;;;;;;5055621;28;20347;-45
2022/04/02 00:55:24;;;;;;;;;;;;;;;;;;5055417;28;19916;-44
2022/04/02 00:57:49;;;;;;;;;;;;;;;;;;5055274;28;20290;-46
2022/04/02 01:00:15;;;;;;;;;;;;;;;;;;5055346;28;19954;-46
2022/04/02 01:02:40;;;;;;;;;;;;;;;;;;5055307;28;19916;-46
2022/04/02 01:05:05;;;;;;;;;;;;;;;;;;5055444;28;19987;-45
2022/04/02 01:07:30;;;;;;;;;;;;;;;;;;5054988;28;19909;-45
2022/04/02 01:09:56;;;;;;;;;;;;;;;;;;5055053;28;19909;-45
2022/04/02 01:12:21;;;;;;;;;;;;;;;;;;5055411;28;19920;-46
2022/04/02 01:14:46;;;;;;;;;;;;;;;;;;5055255;28;19909;-47
2022/04/02 01:17:11;;;;;;;;;;;;;;;;;;5055453;28;19912;-45
2022/04/02 01:19:36;;;;;;;;;;;;;;;;;;5055365;28;19909;-45
2022/04/02 01:22:01;;;;;;;;;;;;;;;;;;5055235;28;19912;-47
2022/04/02 01:24:27;;;;;;;;;;;;;;;;;;5055220;28;19932;-46
2022/04/02 01:26:52;;;;;;;;;;;;;;;;;;5055235;28;19916;-45
2022/04/02 01:29:18;;;;;;;;;;;;;;;;;;5055002;28;19920;-46
2022/04/02 01:31:43;;;;;;;;;;;;;;;;;;5054998;28;19909;-45
2022/04/02 01:34:08;;;;;;;;;;;;;;;;;;5054921;28;20366;-46
2022/04/02 01:36:33;;;;;;;;;;;;;;;;;;5055121;28;20326;-45
2022/04/02 01:38:59;;;;;;;;;;;;;;;;;;5054835;28;19916;-47
2022/04/02 01:41:24;;;;;;;;;;;;;;;;;;5055085;28;19909;-47
2022/04/02 01:43:49;;;;;;;;;;;;;;;;;;5055011;28;19913;-46
2022/04/02 01:46:14;;;;;;;;;;;;;;;;;;5055000;28;20279;-46
2022/04/02 01:48:39;;;;;;;;;;;;;;;;;;5055016;28;19912;-46
2022/04/02 01:51:04;;;;;;;;;;;;;;;;;;5054727;28;19932;-46
2022/04/02 01:53:30;;;;;;;;;;;;;;;;;;5054902;28;19931;-47
2022/04/02 01:55:55;;;;;;;;;;;;;;;;;;5054898;28;19909;-46
2022/04/02 01:58:20;;;;;;;;;;;;;;;;;;5053649;28;20378;-48
2022/04/02 02:00:46;;;;;;;;;;;;;;;;;;5054615;28;19962;-46
2022/04/02 02:03:12;;;;;;;;;;;;;;;;;;5054625;28;20282;-46
2022/04/02 02:05:37;;;;;;;;;;;;;;;;;;5055233;28;19944;-47
2022/04/02 02:08:02;;;;;;;;;;;;;;;;;;5054461;28;20001;-47
2022/04/02 02:10:28;;;;;;;;;;;;;;;;;;5054337;28;19932;-47
2022/04/02 02:12:53;;;;;;;;;;;;;;;;;;5054509;28;20279;-45
2022/04/02 02:15:18;;;;;;;;;;;;;;;;;;5054498;28;19909;-45
2022/04/02 02:17:43;;;;;;;;;;;;;;;;;;5054455;28;19909;-48
2022/04/02 02:20:08;;;;;;;;;;;;;;;;;;5054405;28;19971;-45
2022/04/02 02:22:34;;;;;;;;;;;;;;;;;;5054364;28;19909;-45
2022/04/02 02:24:59;;;;;;;;;;;;;;;;;;5054303;28;19916;-45
2022/04/02 02:27:25;;;;;;;;;;;;;;;;;;5054265;28;19909;-48
2022/04/02 02:29:52;;;;;;;;;;;;;;;;;;5054588;28;19913;-46
2022/04/02 02:32:17;;;;;;;;;;;;;;;;;;5054918;28;20015;-45
2022/04/02 02:37:27;;;;;;;;;;;;;;;;;;5054437;28;19916;-45
2022/04/02 02:39:52;;;;;;;;;;;;;;;;;;5054474;28;19916;-45
2022/04/02 02:42:18;;;;;;;;;;;;;;;;;;5054203;28;20336;-45
2022/04/02 02:44:43;;;;;;;;;;;;;;;;;;5054221;28;19909;-46
2022/04/02 02:47:08;;;;;;;;;;;;;;;;;;5054253;28;19909;-46
2022/04/02 02:49:33;;;;;;;;;;;;;;;;;;5054035;28;19921;-45
2022/04/02 02:51:58;;;;;;;;;;;;;;;;;;5054141;28;19916;-47
2022/04/02 02:54:23;;;;;;;;;;;;;;;;;;5054085;28;19970;-45
2022/04/02 02:56:48;;;;;;;;;;;;;;;;;;5053828;28;19919;-46
2022/04/02 02:59:13;;;;;;;;;;;;;;;;;;5054162;28;20333;-46
2022/04/02 03:01:38;;;;;;;;;;;;;;;;;;5054307;28;19940;-45
2022/04/02 03:04:04;;;;;;;;;;;;;;;;;;5054327;28;19909;-46
2022/04/02 03:06:29;;;;;;;;;;;;;;;;;;5054278;28;19909;-46
2022/04/02 03:08:54;;;;;;;;;;;;;;;;;;5053521;28;19918;-46
2022/04/02 03:11:19;;;;;;;;;;;;;;;;;;5058003;28;19908;-45
2022/04/02 03:13:44;;;;;;;;;;;;;;;;;;5058002;28;19908;-45
2022/04/02 03:16:09;;;;;;;;;;;;;;;;;;5057571;28;19948;-45
2022/04/02 03:18:34;;;;;;;;;;;;;;;;;;5057628;28;19905;-46
2022/04/02 03:20:59;;;;;;;;;;;;;;;;;;5057952;28;19915;-46
2022/04/02 03:23:25;;;;;;;;;;;;;;;;;;5057662;28;20431;-46
2022/04/02 03:25:50;;;;;;;;;;;;;;;;;;5057598;28;19924;-46
2022/04/02 03:28:15;;;;;;;;;;;;;;;;;;5057114;28;19913;-46
2022/04/02 03:30:41;;;;;;;;;;;;;;;;;;5057271;28;19943;-46
2022/04/02 03:33:06;;;;;;;;;;;;;;;;;;5056069;28;19909;-48
2022/04/02 03:35:31;;;;;;;;;;;;;;;;;;5057080;28;19909;-46
2022/04/02 03:37:56;;;;;;;;;;;;;;;;;;5056955;28;20359;-47
2022/04/02 03:40:22;;;;;;;;;;;;;;;;;;5056796;28;20420;-47
2022/04/02 03:42:48;;;;;;;;;;;;;;;;;;5057007;28;19916;-46
2022/04/02 03:45:13;;;;;;;;;;;;;;;;;;5056948;28;20011;-46
2022/04/02 03:47:38;;;;;;;;;;;;;;;;;;5056825;28;19909;-47
2022/04/02 03:50:03;;;;;;;;;;;;;;;;;;5056750;28;19941;-47
2022/04/02 03:52:28;;;;;;;;;;;;;;;;;;5056999;28;19915;-46
2022/04/02 03:54:53;;;;;;;;;;;;;;;;;;5056838;28;20014;-47
2022/04/02 03:57:19;;;;;;;;;;;;;;;;;;5056673;28;20326;-46
2022/04/02 03:59:44;;;;;;;;;;;;;;;;;;5056574;28;19976;-47
2022/04/02 04:02:09;;;;;;;;;;;;;;;;;;5056793;28;19909;-47
2022/04/02 04:04:35;;;;;;;;;;;;;;;;;;5056511;28;20283;-47
2022/04/02 04:07:00;;;;;;;;;;;;;;;;;;5056717;28;19978;-46
2022/04/02 04:09:26;;;;;;;;;;;;;;;;;;5056467;28;19917;-45
2022/04/02 04:11:51;;;;;;;;;;;;;;;;;;5056649;28;19912;-47
2022/04/02 04:14:16;;;;;;;;;;;;;;;;;;5055097;28;19913;-45
2022/04/02 04:16:41;;;;;;;;;;;;;;;;;;5056376;28;19912;-46
2022/04/02 04:19:06;;;;;;;;;;;;;;;;;;5056316;28;19915;-46
2022/04/02 04:21:31;;;;;;;;;;;;;;;;;;5055115;28;19916;-47
2022/04/02 04:23:56;;;;;;;;;;;;;;;;;;5056196;28;19963;-45
2022/04/02 04:26:21;;;;;;;;;;;;;;;;;;5056044;28;19920;-46
2022/04/02 04:28:46;;;;;;;;;;;;;;;;;;5056011;28;20356;-46
2022/04/02 04:31:17;;;;;;;;;;;;;;;;;;5056155;28;19909;-46
2022/04/02 04:33:42;;;;;;;;;;;;;;;;;;5056092;28;19909;-46
2022/04/02 04:36:07;;;;;;;;;;;;;;;;;;5056156;28;19979;-47
2022/04/02 04:38:32;;;;;;;;;;;;;;;;;;5056154;28;20433;-46
2022/04/02 04:40:58;;;;;;;;;;;;;;;;;;5055867;28;19962;-49
2022/04/02 04:43:24;;;;;;;;;;;;;;;;;;5056026;28;20330;-46
2022/04/02 04:45:49;;;;;;;;;;;;;;;;;;5056060;28;19905;-46
2022/04/02 04:48:14;;;;;;;;;;;;;;;;;;5055716;28;20306;-47
2022/04/02 04:50:39;;;;;;;;;;;;;;;;;;5055918;28;20263;-46
2022/04/02 04:53:04;;;;;;;;;;;;;;;;;;5055771;28;20364;-47
2022/04/02 04:55:29;;;;;;;;;;;;;;;;;;5056280;28;20359;-46
2022/04/02 04:57:54;;;;;;;;;;;;;;;;;;5055395;28;19983;-46
2022/04/02 05:00:20;;;;;;;;;;;;;;;;;;5055600;28;20383;-47
2022/04/02 05:02:45;;;;;;;;;;;;;;;;;;5055619;28;20320;-46
2022/04/02 05:05:12;;;;;;;;;;;;;;;;;;5055298;28;19994;-47
2022/04/02 05:07:37;;;;;;;;;;;;;;;;;;5055221;28;19909;-48
2022/04/02 05:10:02;;;;;;;;;;;;;;;;;;5055024;28;19915;-46
2022/04/02 05:12:27;;;;;;;;;;;;;;;;;;5055115;28;19909;-47
2022/04/02 05:14:52;;;;;;;;;;;;;;;;;;5055298;28;20297;-47
2022/04/02 05:17:17;;;;;;;;;;;;;;;;;;5055049;28;19909;-48
2022/04/02 05:19:42;;;;;;;;;;;;;;;;;;5054961;28;20005;-46
2022/04/02 05:22:10;;;;;;;;;;;;;;;;;;5055074;28;19910;-46
2022/04/02 05:24:35;;;;;;;;;;;;;;;;;;5055094;28;20325;-47
2022/04/02 05:27:00;;;;;;;;;;;;;;;;;;5054987;28;19912;-47
2022/04/02 05:29:25;;;;;;;;;;;;;;;;;;5054574;28;19916;-46
2022/04/02 05:31:50;;;;;;;;;;;;;;;;;;5054559;28;19909;-46
2022/04/02 05:34:16;;;;;;;;;;;;;;;;;;5053501;28;20003;-47
2022/04/02 05:36:43;;;;;;;;;;;;;;;;;;5054982;28;19909;-47
2022/04/02 05:39:08;;;;;;;;;;;;;;;;;;5054733;28;19909;-46
2022/04/02 05:41:33;;;;;;;;;;;;;;;;;;5054821;28;20324;-48
2022/04/02 05:43:58;;;;;;;;;;;;;;;;;;5054807;28;19908;-47
2022/04/02 05:46:23;;;;;;;;;;;;;;;;;;5054832;28;19909;-47
2022/04/02 05:48:48;;;;;;;;;;;;;;;;;;5054536;28;19917;-46
2022/04/02 05:51:13;;;;;;;;;;;;;;;;;;5054570;28;20355;-47
2022/04/02 05:53:38;;;;;;;;;;;;;;;;;;5054527;28;20260;-48
2022/04/02 05:56:04;;;;;;;;;;;;;;;;;;5054934;28;19909;-46
2022/04/02 05:58:29;;;;;;;;;;;;;;;;;;5054451;28;19920;-46
2022/04/02 06:00:54;;;;;;;;;;;;;;;;;;5054619;28;19909;-46
2022/04/02 06:03:20;;;;;;;;;;;;;;;;;;5054486;28;20431;-45
2022/04/02 06:05:45;;;;;;;;;;;;;;;;;;5054657;28;19913;-46
2022/04/02 06:08:10;;;;;;;;;;;;;;;;;;5054539;28;19917;-47
2022/04/02 06:10:35;;;;;;;;;;;;;;;;;;5054501;28;20307;-48
2022/04/02 06:13:01;;;;;;;;;;;;;;;;;;5054539;28;19912;-47
2022/04/02 06:15:27;;;;;;;;;;;;;;;;;;5054635;28;19909;-47
2022/04/02 06:17:52;;;;;;;;;;;;;;;;;;5054758;28;19909;-47
2022/04/02 06:20:17;;;;;;;;;;;;;;;;;;5053280;28;19908;-47
2022/04/02 06:22:42;;;;;;;;;;;;;;;;;;5054269;28;19913;-47
2022/04/02 06:25:08;;;;;;;;;;;;;;;;;;5054246;28;19951;-48
2022/04/02 06:27:33;;;;;;;;;;;;;;;;;;5054322;28;19995;-47
2022/04/02 06:29:58;;;;;;;;;;;;;;;;;;5054142;28;19908;-48
2022/04/02 06:32:23;;;;;;;;;;;;;;;;;;5053298;28;19916;-48
2022/04/02 06:34:48;;;;;;;;;;;;;;;;;;5054137;28;19915;-46
2022/04/02 06:37:16;;;;;;;;;;;;;;;;;;5054276;28;19913;-47
2022/04/02 06:39:41;;;;;;;;;;;;;;;;;;5054020;28;19908;-47
2022/04/02 06:42:06;;;;;;;;;;;;;;;;;;5054182;28;19909;-47
2022/04/02 06:44:32;;;;;;;;;;;;;;;;;;5055811;28;20309;-49
2022/04/02 06:46:57;;;;;;;;;;;;;;;;;;5057939;28;19915;-47
2022/04/02 06:49:22;;;;;;;;;;;;;;;;;;5058078;28;20330;-46
2022/04/02 06:51:47;;;;;;;;;;;;;;;;;;5057819;28;19908;-47
2022/04/02 06:54:12;;;;;;;;;;;;;;;;;;5057862;28;19966;-47
2022/04/02 06:56:37;;;;;;;;;;;;;;;;;;5057580;28;19908;-48
2022/04/02 06:59:02;;;;;;;;;;;;;;;;;;5057689;28;19923;-50
2022/04/02 07:01:27;;;;;;;;;;;;;;;;;;5057698;28;19947;-47
2022/04/02 07:03:53;;;;;;;;;;;;;;;;;;5057715;28;20003;-47
2022/04/02 07:06:18;;;;;;;;;;;;;;;;;;5057596;28;19913;-47
2022/04/02 07:08:44;;;;;;;;;;;;;;;;;;5057456;28;19963;-47
2022/04/02 07:11:09;;;;;;;;;;;;;;;;;;5057459;28;19913;-48
2022/04/02 07:13:34;;;;;;;;;;;;;;;;;;5056415;28;19959;-46
2022/04/02 07:15:59;;;;;;;;;;;;;;;;;;5057317;28;19970;-46
2022/04/02 07:18:24;;;;;;;;;;;;;;;;;;5057132;28;19927;-48
2022/04/02 07:20:53;;;;;;;;;;;;;;;;;;5057491;28;20032;-48
2022/04/02 07:23:18;;;;;;;;;;;;;;;;;;5057367;28;19908;-46
2022/04/02 07:25:43;;;;;;;;;;;;;;;;;;5057362;28;19962;-49
2022/04/02 07:28:09;;;;;;;;;;;;;;;;;;5057403;28;19966;-48
2022/04/02 07:30:34;;;;;;;;;;;;;;;;;;5056986;28;19944;-48
2022/04/02 07:32:59;;;;;;;;;;;;;;;;;;5057249;28;20368;-48
2022/04/02 07:35:24;;;;;;;;;;;;;;;;;;5057384;28;19962;-48
2022/04/02 07:37:49;;;;;;;;;;;;;;;;;;5057065;28;19924;-49
2022/04/02 07:40:15;;;;;;;;;;;;;;;;;;5057140;28;20360;-48
2022/04/02 07:42:40;;;;;;;;;;;;;;;;;;5055811;28;19915;-48
2022/04/02 07:45:05;;;;;;;;;;;;;;;;;;5057126;28;19913;-47
2022/04/02 07:47:30;;;;;;;;;;;;;;;;;;5057027;28;20360;-47
2022/04/02 07:49:55;;;;;;;;;;;;;;;;;;5056879;28;19912;-47
2022/04/02 07:52:21;;;;;;;;;;;;;;;;;;5058885;28;19912;-47
2022/04/02 07:54:46;;;;;;;;;;;;;;;;;;5074249;28;19912;-47
2022/04/02 07:57:11;;;;;;;;;;;;;;;;;;5082586;22;19924;-47
2022/04/02 07:59:36;;;;;;;;;;;;;;;;;;5076862;28;19908;-48
2022/04/02 08:02:01;;;;;;;;;;;;;;;;;;5076659;28;19962;-48
2022/04/02 08:04:26;;;;;;;;;;;;;;;;;;5076925;28;19908;-48
2022/04/02 08:06:51;;;;;;;;;;;;;;;;;;5077093;28;20335;-47
2022/04/02 08:09:16;;;;;;;;;;;;;;;;;;5076631;28;19913;-46
2022/04/02 08:11:42;;;;;;;;;;;;;;;;;;5075830;28;19913;-46
2022/04/02 08:14:07;;;;;;;;;;;;;;;;;;5070491;28;19965;-46
2022/04/02 08:16:33;;;;;;;;;;;;;;;;;;5077169;28;20417;-46
2022/04/02 08:18:58;;;;;;;;;;;;;;;;;;5076823;28;19909;-46
2022/04/02 08:21:24;;;;;;;;;;;;;;;;;;5076828;28;19919;-47
2022/04/02 08:23:49;;;;;;;;;;;;;;;;;;5076407;28;19915;-46
2022/04/02 08:26:14;;;;;;;;;;;;;;;;;;5076572;28;19995;-47
2022/04/02 08:28:39;;;;;;;;;;;;;;;;;;5075711;28;19912;-47
2022/04/02 08:31:04;;;;;;;;;;;;;;;;;;5076114;28;19913;-47
2022/04/02 08:33:30;;;;;;;;;;;;;;;;;;5076100;28;19904;-47
2022/04/02 08:35:55;;;;;;;;;;;;;;;;;;5075763;28;19914;-46
2022/04/02 08:38:20;;;;;;;;;;;;;;;;;;5075904;28;19963;-47
2022/04/02 08:40:45;;;;;;;;;;;;;;;;;;5075901;28;20390;-48
2022/04/02 08:43:10;;;;;;;;;;;;;;;;;;5075970;28;19915;-47
2022/04/02 08:45:37;;;;;;;;;;;;;;;;;;5075823;28;19982;-47
2022/04/02 08:48:02;;;;;;;;;;;;;;;;;;5075970;28;19959;-47
2022/04/02 08:50:27;;;;;;;;;;;;;;;;;;5074690;28;19955;-46
2022/04/02 08:52:52;;;;;;;;;;;;;;;;;;5075802;28;19952;-46
2022/04/02 08:55:17;;;;;;;;;;;;;;;;;;5075939;28;19915;-49
2022/04/02 08:57:42;;;;;;;;;;;;;;;;;;5075614;28;20011;-50
2022/04/02 09:00:07;;;;;;;;;;;;;;;;;;5076038;28;19913;-46
2022/04/02 09:02:33;;;;;;;;;;;;;;;;;;5075790;28;19971;-46
2022/04/02 09:04:58;;;;;;;;;;;;;;;;;;5075550;28;19909;-47
2022/04/02 09:07:23;;;;;;;;;;;;;;;;;;5075345;28;19978;-47
2022/04/02 09:09:48;;;;;;;;;;;;;;;;;;5075226;28;19919;-47
2022/04/02 09:12:13;;;;;;;;;;;;;;;;;;5075449;28;19932;-46
2022/04/02 09:14:38;;;;;;;;;;;;;;;;;;5075546;28;19909;-46
2022/04/02 09:17:04;;;;;;;;;;;;;;;;;;5075833;28;19913;-46
2022/04/02 09:19:29;;;;;;;;;;;;;;;;;;5075347;28;19919;-46
2022/04/02 09:21:54;;;;;;;;;;;;;;;;;;5074866;28;19920;-46
2022/04/02 09:24:19;;;;;;;;;;;;;;;;;;5075038;28;19962;-46
2022/04/02 09:26:45;;;;;;;;;;;;;;;;;;5075042;28;19959;-47
2022/04/02 09:29:10;;;;;;;;;;;;;;;;;;5073673;28;20003;-47
2022/04/02 09:31:35;;;;;;;;;;;;;;;;;;5074816;28;19999;-48
2022/04/02 09:34:01;;;;;;;;;;;;;;;;;;5073673;28;19916;-47
2022/04/02 09:36:26;;;;;;;;;;;;;;;;;;5075051;28;19915;-47
2022/04/02 09:38:51;;;;;;;;;;;;;;;;;;5075041;28;20359;-47
2022/04/02 09:41:16;;;;;;;;;;;;;;;;;;5074786;28;19908;-47
2022/04/02 09:43:41;;;;;;;;;;;;;;;;;;5074857;28;19908;-47
2022/04/02 09:46:06;;;;;;;;;;;;;;;;;;5074715;28;19909;-46
2022/04/02 09:48:31;;;;;;;;;;;;;;;;;;5074734;28;20035;-47
2022/04/02 09:50:56;;;;;;;;;;;;;;;;;;5074584;28;19908;-47
2022/04/02 09:53:22;;;;;;;;;;;;;;;;;;5074890;28;19909;-48
2022/04/02 09:55:47;;;;;;;;;;;;;;;;;;5074955;28;19913;-46
2022/04/02 09:58:12;;;;;;;;;;;;;;;;;;5075038;28;19995;-47
2022/04/02 10:00:38;;;;;;;;;;;;;;;;;;5074873;28;20256;-47
2022/04/02 10:03:03;;;;;;;;;;;;;;;;;;5075275;28;20360;-47
2022/04/02 10:05:29;;;;;;;;;;;;;;;;;;5073532;28;19909;-46
2022/04/02 10:07:54;;;;;;;;;;;;;;;;;;5075079;28;19908;-47
2022/04/02 10:10:19;;;;;;;;;;;;;;;;;;5074832;28;19916;-47
2022/04/02 10:12:46;;;;;;;;;;;;;;;;;;5075351;28;20003;-48
2022/04/02 10:15:11;;;;;;;;;;;;;;;;;;5074989;28;19909;-47
2022/04/02 10:17:37;;;;;;;;;;;;;;;;;;5074528;28;19916;-47
2022/04/02 10:20:02;;;;;;;;;;;;;;;;;;5077435;28;19908;-47
2022/04/02 10:22:27;;;;;;;;;;;;;;;;;;5078748;28;19908;-47
2022/04/02 10:24:52;;;;;;;;;;;;;;;;;;5078884;28;19952;-48
2022/04/02 10:27:17;;;;;;;;;;;;;;;;;;5078960;28;20296;-46
2022/04/02 10:29:42;;;;;;;;;;;;;;;;;;5078489;28;19912;-48
2022/04/02 10:32:07;;;;;;;;;;;;;;;;;;5078615;28;19909;-46
2022/04/02 10:34:32;;;;;;;;;;;;;;;;;;5078330;28;19959;-46
2022/04/02 10:36:58;;;;;;;;;;;;;;;;;;5078534;28;19973;-47
2022/04/02 10:39:23;;;;;;;;;;;;;;;;;;5078381;28;19909;-46
2022/04/02 10:41:48;;;;;;;;;;;;;;;;;;5070741;28;19913;-46
2022/04/02 10:44:13;;;;;;;;;;;;;;;;;;5078494;28;20003;-47
2022/04/02 10:46:38;;;;;;;;;;;;;;;;;;5078128;28;19913;-46
2022/04/02 10:49:05;;;;;;;;;;;;;;;;;;5074043;28;20325;-46
2022/04/02 10:51:30;;;;;;;;;;;;;;;;;;5078156;28;20316;-46
2022/04/02 10:53:55;;;;;;;;;;;;;;;;;;5078031;28;19940;-45
2022/04/02 10:56:20;;;;;;;;;;;;;;;;;;5078056;28;20252;-46
2022/04/02 10:58:45;;;;;;;;;;;;;;;;;;5077998;28;19927;-46
2022/04/02 11:01:10;;;;;;;;;;;;;;;;;;5077652;28;19908;-46
2022/04/02 11:03:36;;;;;;;;;;;;;;;;;;5077617;28;20028;-47
2022/04/02 11:06:01;;;;;;;;;;;;;;;;;;5077836;28;19994;-45
2022/04/02 11:08:26;;;;;;;;;;;;;;;;;;5077533;28;20039;-46
2022/04/02 11:10:51;;;;;;;;;;;;;;;;;;5077649;28;19908;-46
2022/04/02 11:13:16;;;;;;;;;;;;;;;;;;5077372;28;19908;-46
2022/04/02 11:15:41;;;;;;;;;;;;;;;;;;5077611;28;20318;-46
2022/04/02 11:18:06;;;;;;;;;;;;;;;;;;5077327;28;20249;-47
2022/04/02 11:20:32;;;;;;;;;;;;;;;;;;5077345;28;20332;-48
2022/04/02 11:23:02;;;;;;;;;;;;;;;;;;5076606;28;19913;-47
2022/04/02 11:25:37;;;;;;;;;;;;;;;;;;5077245;28;20111;-47
2022/04/02 11:28:02;;;;;;;;;;;;;;;;;;5077256;28;19916;-46
2022/04/02 11:30:27;;;;;;;;;;;;;;;;;;5076887;28;19909;-46
2022/04/02 11:32:52;;;;;;;;;;;;;;;;;;5077115;28;19919;-46
2022/04/02 11:35:17;;;;;;;;;;;;;;;;;;5077297;28;20284;-49
2022/04/02 11:37:42;;;;;;;;;;;;;;;;;;5077108;28;19969;-47
2022/04/02 11:40:08;;;;;;;;;;;;;;;;;;5075464;28;19966;-46
2022/04/02 11:42:38;;;;;;;;;;;;;;;;;;5076950;28;19987;-48
2022/04/02 11:45:03;;;;;;;;;;;;;;;;;;5077046;28;20006;-47
2022/04/02 11:47:28;;;;;;;;;;;;;;;;;;5076989;28;19908;-47
2022/04/02 11:49:53;;;;;;;;;;;;;;;;;;5076989;28;19912;-47
2022/04/02 11:52:18;;;;;;;;;;;;;;;;;;5077187;28;19908;-47
2022/04/02 11:54:43;;;;;;;;;;;;;;;;;;5076870;28;20049;-49
2022/04/02 11:57:08;;;;;;;;;;;;;;;;;;5076581;28;19966;-48
2022/04/02 11:59:34;;;;;;;;;;;;;;;;;;5076876;28;19908;-46
2022/04/02 12:01:59;;;;;;;;;;;;;;;;;;5076491;28;19909;-50
2022/04/02 12:04:25;;;;;;;;;;;;;;;;;;5076760;28;19912;-46
2022/04/02 12:06:50;;;;;;;;;;;;;;;;;;5076678;28;20351;-47
2022/04/02 12:09:16;;;;;;;;;;;;;;;;;;5076287;28;19978;-47
2022/04/02 12:11:41;;;;;;;;;;;;;;;;;;5076451;28;19909;-47
2022/04/02 12:14:06;;;;;;;;;;;;;;;;;;5076314;28;19908;-47
2022/04/02 12:16:32;;;;;;;;;;;;;;;;;;5076518;28;19913;-47
2022/04/02 12:18:57;;;;;;;;;;;;;;;;;;5076318;28;19944;-50
2022/04/02 12:21:22;;;;;;;;;;;;;;;;;;5076512;28;19916;-47
2022/04/02 12:23:48;;;;;;;;;;;;;;;;;;5076293;28;19959;-46
2022/04/02 12:26:13;;;;;;;;;;;;;;;;;;5076131;28;19912;-47
2022/04/02 12:28:38;;;;;;;;;;;;;;;;;;5074860;28;19926;-47
2022/04/02 12:31:03;;;;;;;;;;;;;;;;;;5076159;28;20426;-49
2022/04/02 12:33:28;;;;;;;;;;;;;;;;;;5076095;28;20309;-47
2022/04/02 12:35:53;;;;;;;;;;;;;;;;;;5076000;28;19909;-46
2022/04/02 12:38:19;;;;;;;;;;;;;;;;;;5076008;28;19940;-47
2022/04/02 12:40:44;;;;;;;;;;;;;;;;;;5075112;28;19915;-46
2022/04/02 12:43:14;;;;;;;;;;;;;;;;;;5074859;28;19919;-46
2022/04/02 12:45:40;;;;;;;;;;;;;;;;;;5075862;28;19909;-49
2022/04/02 12:48:05;;;;;;;;;;;;;;;;;;5075627;28;20446;-46
2022/04/02 12:50:30;;;;;;;;;;;;;;;;;;5075687;28;19912;-47
2022/04/02 12:52:55;;;;;;;;;;;;;;;;;;5075544;28;19912;-50
2022/04/02 12:55:20;;;;;;;;;;;;;;;;;;5075531;28;19904;-47
2022/04/02 12:57:45;;;;;;;;;;;;;;;;;;5075351;28;20038;-48
2022/04/02 13:00:10;;;;;;;;;;;;;;;;;;5075230;28;20363;-47
2022/04/02 13:02:36;;;;;;;;;;;;;;;;;;5075357;28;20347;-48
2022/04/02 13:05:01;;;;;;;;;;;;;;;;;;5075188;28;19909;-47
2022/04/02 13:07:26;;;;;;;;;;;;;;;;;;5075290;28;19915;-47
2022/04/02 13:09:54;;;;;;;;;;;;;;;;;;5075136;28;19912;-48
2022/04/02 13:12:19;;;;;;;;;;;;;;;;;;5075571;28;19908;-47
2022/04/02 13:14:45;;;;;;;;;;;;;;;;;;5075249;28;20311;-48
2022/04/02 13:17:10;;;;;;;;;;;;;;;;;;5075279;28;19946;-47
2022/04/02 13:22:19;;;;;;;;;;;;;;;;;;5075305;28;19916;-47
2022/04/02 13:24:45;;;;;;;;;;;;;;;;;;5075007;28;19909;-47
2022/04/02 13:27:10;;;;;;;;;;;;;;;;;;5074956;28;19913;-46
2022/04/02 13:29:35;;;;;;;;;;;;;;;;;;5074766;28;19916;-47
2022/04/02 13:32:02;;;;;;;;;;;;;;;;;;5074257;28;20454;-48
2022/04/02 13:34:27;;;;;;;;;;;;;;;;;;5074549;28;19909;-47
2022/04/02 13:36:52;;;;;;;;;;;;;;;;;;5074729;28;20367;-47
2022/04/02 13:39:17;;;;;;;;;;;;;;;;;;5074729;28;19909;-49
2022/04/02 13:41:42;;;;;;;;;;;;;;;;;;5074915;28;19999;-48
2022/04/02 13:44:10;;;;;;;;;;;;;;;;;;5075415;28;19938;-47
2022/04/02 13:46:35;;;;;;;;;;;;;;;;;;5073361;28;19912;-47
2022/04/02 13:49:00;;;;;;;;;;;;;;;;;;5074671;28;20008;-47
2022/04/02 13:51:26;;;;;;;;;;;;;;;;;;5074612;28;19940;-48
2022/04/02 13:53:51;;;;;;;;;;;;;;;;;;5074709;28;19912;-48
2022/04/02 13:56:18;;;;;;;;;;;;;;;;;;5074553;28;19920;-48
2022/04/02 13:58:43;;;;;;;;;;;;;;;;;;5074185;28;19970;-48
2022/04/02 14:01:08;;;;;;;;;;;;;;;;;;5073274;28;19931;-48
2022/04/02 14:03:33;;;;;;;;;;;;;;;;;;5074181;28;20424;-47
2022/04/02 14:05:58;;;;;;;;;;;;;;;;;;5074306;28;19915;-47
2022/04/02 14:08:24;;;;;;;;;;;;;;;;;;5074288;28;19912;-47
2022/04/02 14:10:49;;;;;;;;;;;;;;;;;;5074476;28;19912;-48
2022/04/02 14:13:14;;;;;;;;;;;;;;;;;;5074339;28;19912;-47
2022/04/02 14:15:39;;;;;;;;;;;;;;;;;;5074179;28;19908;-49
2022/04/02 14:18:05;;;;;;;;;;;;;;;;;;5074752;28;19912;-47
2022/04/02 14:20:30;;;;;;;;;;;;;;;;;;5074904;28;19908;-47
2022/04/02 14:22:55;;;;;;;;;;;;;;;;;;5072830;28;20298;-47
2022/04/02 14:25:20;;;;;;;;;;;;;;;;;;5074331;28;19915;-47
2022/04/02 14:27:45;;;;;;;;;;;;;;;;;;5074143;28;20415;-48
2022/04/02 14:30:10;;;;;;;;;;;;;;;;;;5073820;28;19955;-47
2022/04/02 14:32:35;;;;;;;;;;;;;;;;;;5074014;28;19962;-47
2022/04/02 14:35:01;;;;;;;;;;;;;;;;;;5074011;28;19916;-47
2022/04/02 14:37:26;;;;;;;;;;;;;;;;;;5074312;28;19908;-47
2022/04/02 14:39:51;;;;;;;;;;;;;;;;;;5074134;28;19913;-48
2022/04/02 14:42:16;;;;;;;;;;;;;;;;;;5074184;28;20518;-50
2022/04/02 14:44:41;;;;;;;;;;;;;;;;;;5074111;28;19904;-48
2022/04/02 14:47:06;;;;;;;;;;;;;;;;;;5073963;28;19912;-47
2022/04/02 14:49:31;;;;;;;;;;;;;;;;;;5073836;28;20378;-48
2022/04/02 14:51:56;;;;;;;;;;;;;;;;;;5073978;28;20385;-47
2022/04/02 14:54:21;;;;;;;;;;;;;;;;;;5073799;28;19948;-50
2022/04/02 14:56:46;;;;;;;;;;;;;;;;;;5073425;28;19908;-50
2022/04/02 14:59:12;;;;;;;;;;;;;;;;;;5073945;28;20015;-48
2022/04/02 15:01:37;;;;;;;;;;;;;;;;;;5073572;28;19979;-48
2022/04/02 15:04:02;;;;;;;;;;;;;;;;;;5073623;28;19962;-50
2022/04/02 15:06:27;;;;;;;;;;;;;;;;;;5076643;28;19932;-48
2022/04/02 15:08:53;;;;;;;;;;;;;;;;;;5077126;28;19923;-50
2022/04/02 15:11:20;;;;;;;;;;;;;;;;;;5077372;28;19987;-50
2022/04/02 15:13:45;;;;;;;;;;;;;;;;;;5077404;28;20294;-49
2022/04/02 15:16:10;;;;;;;;;;;;;;;;;;5077390;28;19920;-48
2022/04/02 15:18:35;;;;;;;;;;;;;;;;;;5077206;28;20293;-49
2022/04/02 15:21:00;;;;;;;;;;;;;;;;;;5077382;28;19909;-48
2022/04/02 15:23:25;;;;;;;;;;;;;;;;;;5077257;28;19951;-51
2022/04/02 15:25:51;;;;;;;;;;;;;;;;;;5086723;28;19955;-48
2022/04/02 15:28:16;;;;;;;;;;;;;;;;;;5097302;28;19912;-50
2022/04/02 15:30:41;;;;;;;;;;;;;;;;;;5097567;28;19953;-48
2022/04/02 15:33:06;;;;;;;;;;;;;;;;;;5097396;28;19951;-50
2022/04/02 15:35:31;;;;;;;;;;;;;;;;;;5097173;28;19955;-48
2022/04/02 15:37:56;;;;;;;;;;;;;;;;;;5076847;28;19913;-48
2022/04/02 15:40:22;;;;;;;;;;;;;;;;;;5077047;28;19909;-47
2022/04/02 15:42:47;;;;;;;;;;;;;;;;;;5076838;28;19904;-48
2022/04/02 15:45:12;;;;;;;;;;;;;;;;;;5076942;28;19999;-47
2022/04/02 15:47:37;;;;;;;;;;;;;;;;;;5076764;28;20003;-48
2022/04/02 15:50:02;;;;;;;;;;;;;;;;;;5076972;28;19912;-48
2022/04/02 15:52:27;;;;;;;;;;;;;;;;;;5076721;28;19940;-49
2022/04/02 15:54:53;;;;;;;;;;;;;;;;;;5076812;28;19947;-48
2022/04/02 15:57:18;;;;;;;;;;;;;;;;;;5076380;28;20442;-49
2022/04/02 15:59:43;;;;;;;;;;;;;;;;;;5076720;28;20324;-49
2022/04/02 16:02:08;;;;;;;;;;;;;;;;;;5076674;28;19909;-48
2022/04/02 16:04:34;;;;;;;;;;;;;;;;;;5076358;28;20015;-50
2022/04/02 16:06:59;;;;;;;;;;;;;;;;;;5076431;28;19912;-49
2022/04/02 16:09:24;;;;;;;;;;;;;;;;;;5076466;28;19958;-52
2022/04/02 16:11:49;;;;;;;;;;;;;;;;;;5075131;28;19908;-48
2022/04/02 16:14:14;;;;;;;;;;;;;;;;;;5076457;28;19915;-48
2022/04/02 16:16:39;;;;;;;;;;;;;;;;;;5075101;28;19915;-49
2022/04/02 16:19:04;;;;;;;;;;;;;;;;;;5076360;28;19954;-49
2022/04/02 16:21:29;;;;;;;;;;;;;;;;;;5076218;28;20320;-49
2022/04/02 16:23:55;;;;;;;;;;;;;;;;;;5076231;28;19908;-48
2022/04/02 16:26:20;;;;;;;;;;;;;;;;;;5075906;28;20378;-49
2022/04/02 16:28:45;;;;;;;;;;;;;;;;;;5075155;28;19935;-50
2022/04/02 16:31:15;;;;;;;;;;;;;;;;;;5059759;28;20319;-48
2022/04/02 16:33:40;;;;;;;;;;;;;;;;;;5075165;28;20293;-47
2022/04/02 16:36:06;;;;;;;;;;;;;;;;;;5095906;28;19908;-47
2022/04/02 16:38:31;;;;;;;;;;;;;;;;;;5064582;28;19956;-47